Time,TemperatureF,DewpointF,PressureIn,WindDirection,WindDirectionDegrees,WindSpeedMPH,WindSpeedGustMPH,Humidity,HourlyPrecipIn,Conditions,Clouds,dailyrainin,SoftwareType,DateUTC
2013-02-15 00:02:00,34.0,20.0,30.00,SE,125,1.0,-999.0,56,-99.99,,,-99.99,,2013-02-15 05:02:00,
2013-02-15 00:12:00,34.0,20.0,30.00,SE,125,1.0,-999.0,56,-99.99,,,-99.99,,2013-02-15 05:12:00,
2013-02-15 00:22:00,34.0,20.0,29.99,East,96,1.0,-999.0,57,-99.99,,,-99.99,,2013-02-15 05:22:00,
2013-02-15 00:32:00,34.0,20.0,29.99,ESE,104,1.0,-999.0,57,-99.99,,,-99.99,,2013-02-15 05:32:00,
2013-02-15 00:41:00,34.0,20.0,29.99,ESE,104,1.0,-999.0,57,-99.99,,,-99.99,,2013-02-15 05:41:00,
2013-02-15 00:52:00,33.0,19.0,30.00,ESE,121,0.0,-999.0,57,-99.99,,,-99.99,,2013-02-15 05:52:00,
2013-02-15 01:02:00,33.0,20.0,30.00,ESE,111,0.0,-999.0,58,-99.99,,,-99.99,,2013-02-15 06:02:00,
2013-02-15 01:11:00,33.0,20.0,30.01,ESE,119,0.0,-999.0,58,-99.99,,,-99.99,,2013-02-15 06:11:00,
2013-02-15 01:21:00,33.0,20.0,30.01,ESE,119,0.0,-999.0,58,-99.99,,,-99.99,,2013-02-15 06:21:00,
2013-02-15 01:31:00,33.0,20.0,30.01,ESE,112,0.0,-999.0,58,-99.99,,,-99.99,,2013-02-15 06:31:00,
2013-02-15 01:42:00,33.0,20.0,30.01,ESE,112,0.0,-999.0,58,-99.99,,,-99.99,,2013-02-15 06:42:00,
2013-02-15 01:52:00,33.0,20.0,30.00,ESE,119,0.0,-999.0,58,-99.99,,,-99.99,,2013-02-15 06:52:00,
2013-02-15 02:01:00,33.0,20.0,30.00,ESE,119,0.0,-999.0,58,-99.99,,,-99.99,,2013-02-15 07:01:00,
2013-02-15 02:11:00,33.0,20.0,30.00,ESE,119,0.0,-999.0,58,-99.99,,,-99.99,,2013-02-15 07:11:00,
2013-02-15 02:21:00,32.0,19.0,30.01,ESE,119,0.0,-999.0,59,-99.99,,,-99.99,,2013-02-15 07:21:00,
2013-02-15 02:31:00,32.0,19.0,30.01,ESE,119,0.0,-999.0,59,-99.99,,,-99.99,,2013-02-15 07:31:00,
2013-02-15 02:41:00,32.0,19.0,30.01,ESE,119,0.0,-999.0,59,-99.99,,,-99.99,,2013-02-15 07:41:00,
2013-02-15 02:52:00,32.0,20.0,30.01,ESE,111,0.0,-999.0,61,-99.99,,,-99.99,,2013-02-15 07:52:00,
2013-02-15 03:01:00,31.0,20.0,30.01,ESE,117,0.0,-999.0,62,-99.99,,,-99.99,,2013-02-15 08:01:00,
2013-02-15 03:11:00,31.0,20.0,30.01,ESE,117,0.0,-999.0,62,-99.99,,,-99.99,,2013-02-15 08:11:00,
2013-02-15 03:21:00,31.0,20.0,30.02,ENE,78,0.0,-999.0,64,-99.99,,,-99.99,,2013-02-15 08:21:00,
2013-02-15 03:31:00,31.0,21.0,30.02,ENE,78,0.0,-999.0,65,-99.99,,,-99.99,,2013-02-15 08:31:00,
2013-02-15 03:41:00,31.0,21.0,30.02,ENE,78,0.0,-999.0,65,-99.99,,,-99.99,,2013-02-15 08:41:00,
2013-02-15 03:53:00,31.0,21.0,30.02,ENE,78,0.0,-999.0,67,-99.99,,,-99.99,,2013-02-15 08:53:00,
2013-02-15 04:01:00,31.0,22.0,30.02,ENE,76,0.0,-999.0,68,-99.99,,,-99.99,,2013-02-15 09:01:00,
2013-02-15 04:12:00,31.0,22.0,30.02,ENE,76,0.0,-999.0,68,-99.99,,,-99.99,,2013-02-15 09:12:00,
2013-02-15 04:21:00,31.0,22.0,30.02,ESE,110,0.0,-999.0,69,-99.99,,,-99.99,,2013-02-15 09:21:00,
2013-02-15 04:32:00,31.0,22.0,30.02,SE,126,0.0,-999.0,70,-99.99,,,-99.99,,2013-02-15 09:32:00,
2013-02-15 04:41:00,31.0,22.0,30.02,SE,126,0.0,-999.0,70,-99.99,,,-99.99,,2013-02-15 09:41:00,
2013-02-15 04:52:00,32.0,25.0,30.02,West,270,0.0,-999.0,75,-99.99,,,-99.99,,2013-02-15 09:52:00,
2013-02-15 05:01:00,32.0,26.0,30.02,SE,127,1.0,-999.0,78,-99.99,,,-99.99,,2013-02-15 10:01:00,
2013-02-15 05:11:00,32.0,26.0,30.02,SE,127,1.0,-999.0,78,-99.99,,,-99.99,,2013-02-15 10:11:00,
2013-02-15 05:21:00,31.0,26.0,30.04,NW,323,0.0,-999.0,81,-99.99,,,-99.99,,2013-02-15 10:21:00,
2013-02-15 05:31:00,31.0,26.0,30.04,West,268,0.0,-999.0,81,-99.99,,,-99.99,,2013-02-15 10:31:00,
2013-02-15 05:41:00,31.0,26.0,30.04,West,268,0.0,-999.0,81,-99.99,,,-99.99,,2013-02-15 10:41:00,
2013-02-15 05:52:00,30.0,25.0,30.05,SW,236,0.0,-999.0,82,-99.99,,,-99.99,,2013-02-15 10:52:00,
2013-02-15 06:01:00,30.0,25.0,30.05,SW,236,0.0,-999.0,82,-99.99,,,-99.99,,2013-02-15 11:01:00,
2013-02-15 06:11:00,30.0,25.0,30.05,SW,236,0.0,-999.0,82,-99.99,,,-99.99,,2013-02-15 11:11:00,
2013-02-15 06:22:00,29.0,24.0,30.06,South,183,0.0,-999.0,82,-99.99,,,-99.99,,2013-02-15 11:22:00,
2013-02-15 06:32:00,29.0,24.0,30.06,South,186,0.0,-999.0,82,-99.99,,,-99.99,,2013-02-15 11:32:00,
2013-02-15 06:42:00,29.0,24.0,30.06,South,186,0.0,-999.0,82,-99.99,,,-99.99,,2013-02-15 11:42:00,
2013-02-15 06:52:00,28.0,24.0,30.07,South,186,0.0,-999.0,84,-99.99,,,-99.99,,2013-02-15 11:52:00,
2013-02-15 07:01:00,28.0,24.0,30.07,South,186,0.0,-999.0,84,-99.99,,,-99.99,,2013-02-15 12:01:00,
2013-02-15 07:11:00,28.0,24.0,30.07,South,186,0.0,-999.0,84,-99.99,,,-99.99,,2013-02-15 12:11:00,
2013-02-15 07:21:00,28.0,24.0,30.08,WSW,237,0.0,-999.0,85,-99.99,,,-99.99,,2013-02-15 12:21:00,
2013-02-15 07:32:00,28.0,24.0,30.08,WSW,237,0.0,-999.0,85,-99.99,,,-99.99,,2013-02-15 12:32:00,
2013-02-15 07:42:00,28.0,24.0,30.08,WSW,237,0.0,-999.0,85,-99.99,,,-99.99,,2013-02-15 12:42:00,
2013-02-15 07:52:00,28.0,24.0,30.09,WSW,237,0.0,-999.0,86,-99.99,,,-99.99,,2013-02-15 12:52:00,
2013-02-15 08:02:00,28.0,24.0,30.09,West,265,0.0,-999.0,86,-99.99,,,-99.99,,2013-02-15 13:02:00,
2013-02-15 08:11:00,28.0,24.0,30.09,West,265,0.0,-999.0,86,-99.99,,,-99.99,,2013-02-15 13:11:00,
2013-02-15 08:21:00,28.0,25.0,30.10,SW,215,0.0,-999.0,87,-99.99,,,-99.99,,2013-02-15 13:21:00,
2013-02-15 08:32:00,28.0,25.0,30.10,WSW,257,0.0,-999.0,87,-99.99,,,-99.99,,2013-02-15 13:32:00,
2013-02-15 08:41:00,28.0,25.0,30.10,WSW,257,0.0,-999.0,87,-99.99,,,-99.99,,2013-02-15 13:41:00,
2013-02-15 08:52:00,28.0,25.0,30.12,West,261,0.0,-999.0,87,-99.99,,,-99.99,,2013-02-15 13:52:00,
2013-02-15 09:01:00,28.0,24.0,30.12,East,92,0.0,-999.0,86,-99.99,,,-99.99,,2013-02-15 14:01:00,
2013-02-15 09:11:00,28.0,24.0,30.12,East,92,0.0,-999.0,86,-99.99,,,-99.99,,2013-02-15 14:11:00,
2013-02-15 09:21:00,28.0,24.0,30.14,West,271,0.0,-999.0,85,-99.99,,,-99.99,,2013-02-15 14:21:00,
2013-02-15 09:32:00,28.0,24.0,30.14,SE,146,0.0,-999.0,84,-99.99,,,-99.99,,2013-02-15 14:32:00,
2013-02-15 09:41:00,28.0,24.0,30.14,SE,146,0.0,-999.0,84,-99.99,,,-99.99,,2013-02-15 14:41:00,
2013-02-15 09:52:00,28.0,23.0,30.15,NE,50,0.0,-999.0,81,-99.99,,,-99.99,,2013-02-15 14:52:00,
2013-02-15 10:01:00,28.0,23.0,30.15,SE,135,0.0,-999.0,80,-99.99,,,-99.99,,2013-02-15 15:01:00,
2013-02-15 10:11:00,28.0,23.0,30.15,SE,135,0.0,-999.0,80,-99.99,,,-99.99,,2013-02-15 15:11:00,
2013-02-15 10:21:00,29.0,24.0,30.15,West,270,0.0,-999.0,80,-99.99,,,-99.99,,2013-02-15 15:21:00,
2013-02-15 10:32:00,29.0,24.0,30.15,WSW,255,1.0,-999.0,81,-99.99,,,-99.99,,2013-02-15 15:32:00,
2013-02-15 10:42:00,29.0,23.0,30.17,NW,319,0.0,-999.0,79,-99.99,,,-99.99,,2013-02-15 15:42:00,
2013-02-15 10:52:00,29.0,23.0,30.17,NW,319,0.0,-999.0,79,-99.99,,,-99.99,,2013-02-15 15:52:00,
2013-02-15 11:01:00,28.0,23.0,30.17,WNW,292,0.0,-999.0,80,-99.99,,,-99.99,,2013-02-15 16:01:00,
2013-02-15 11:11:00,28.0,23.0,30.17,WNW,292,0.0,-999.0,80,-99.99,,,-99.99,,2013-02-15 16:11:00,
2013-02-15 11:22:00,29.0,23.0,30.17,ESE,117,1.0,-999.0,79,-99.99,,,-99.99,,2013-02-15 16:22:00,
2013-02-15 11:32:00,28.0,22.0,30.17,East,93,0.0,-999.0,79,-99.99,,,-99.99,,2013-02-15 16:32:00,
2013-02-15 11:42:00,28.0,22.0,30.17,East,93,0.0,-999.0,79,-99.99,,,-99.99,,2013-02-15 16:42:00,
2013-02-15 11:52:00,28.0,22.0,30.18,SE,131,1.0,-999.0,78,-99.99,,,-99.99,,2013-02-15 16:52:00,
2013-02-15 12:01:00,29.0,23.0,30.18,East,95,2.0,-999.0,77,-99.99,,,-99.99,,2013-02-15 17:01:00,
2013-02-15 12:11:00,29.0,20.0,30.18,SSE,167,2.0,-999.0,69,-99.99,,,-99.99,,2013-02-15 17:11:00,
2013-02-15 12:21:00,29.0,20.0,30.18,SSE,167,2.0,-999.0,69,-99.99,,,-99.99,,2013-02-15 17:21:00,
2013-02-15 12:32:00,29.0,20.0,30.18,ESE,107,2.0,-999.0,68,-99.99,,,-99.99,,2013-02-15 17:32:00,
2013-02-15 12:41:00,29.0,20.0,30.18,ESE,107,2.0,-999.0,68,-99.99,,,-99.99,,2013-02-15 17:41:00,
2013-02-15 12:52:00,29.0,18.0,30.19,East,100,2.0,-999.0,64,-99.99,,,-99.99,,2013-02-15 17:52:00,
2013-02-15 13:01:00,30.0,18.0,30.19,SSE,165,2.0,-999.0,60,-99.99,,,-99.99,,2013-02-15 18:01:00,
2013-02-15 13:11:00,30.0,18.0,30.19,SSE,165,2.0,-999.0,60,-99.99,,,-99.99,,2013-02-15 18:11:00,
2013-02-15 13:21:00,30.0,16.0,30.18,NNW,334,2.0,-999.0,56,-99.99,,,-99.99,,2013-02-15 18:21:00,
2013-02-15 13:31:00,31.0,18.0,30.18,ESE,115,3.0,-999.0,57,-99.99,,,-99.99,,2013-02-15 18:31:00,
2013-02-15 13:42:00,31.0,18.0,30.18,ESE,115,3.0,-999.0,57,-99.99,,,-99.99,,2013-02-15 18:42:00,
2013-02-15 13:52:00,30.0,15.0,30.18,SE,135,2.0,-999.0,53,-99.99,,,-99.99,,2013-02-15 18:52:00,
2013-02-15 14:01:00,30.0,17.0,30.18,ESE,107,2.0,-999.0,57,-99.99,,,-99.99,,2013-02-15 19:01:00,
2013-02-15 14:11:00,30.0,17.0,30.18,ESE,107,2.0,-999.0,57,-99.99,,,-99.99,,2013-02-15 19:11:00,
2013-02-15 14:22:00,30.0,17.0,30.18,ESE,109,2.0,-999.0,58,-99.99,,,-99.99,,2013-02-15 19:22:00,
2013-02-15 14:32:00,30.0,17.0,30.18,ESE,109,2.0,-999.0,58,-99.99,,,-99.99,,2013-02-15 19:32:00,
2013-02-15 14:41:00,30.0,17.0,30.18,ESE,109,2.0,-999.0,58,-99.99,,,-99.99,,2013-02-15 19:41:00,
2013-02-15 14:52:00,30.0,17.0,30.18,ESE,109,2.0,-999.0,58,-99.99,,,-99.99,,2013-02-15 19:52:00,
2013-02-15 15:01:00,30.0,17.0,30.18,ESE,109,2.0,-999.0,58,-99.99,,,-99.99,,2013-02-15 20:01:00,
2013-02-15 18:21:00,26.0,13.0,30.20,East,88,1.0,-999.0,58,-99.99,,,-99.99,,2013-02-15 23:21:00,
2013-02-15 18:32:00,26.0,14.0,30.20,SSE,151,1.0,-999.0,59,-99.99,,,-99.99,,2013-02-15 23:32:00,
2013-02-15 18:42:00,26.0,14.0,30.20,SSE,151,1.0,-999.0,59,-99.99,,,-99.99,,2013-02-15 23:42:00,
2013-02-15 18:52:00,25.0,13.0,30.21,SSE,151,0.0,-999.0,61,-99.99,,,-99.99,,2013-02-15 23:52:00,
2013-02-15 19:02:00,25.0,14.0,30.21,SSE,151,0.0,-999.0,62,-99.99,,,-99.99,,2013-02-16 00:02:00,
2013-02-15 19:11:00,25.0,14.0,30.21,SSE,151,0.0,-999.0,62,-99.99,,,-99.99,,2013-02-16 00:11:00,
2013-02-15 19:21:00,24.0,13.0,30.21,SSE,151,0.0,-999.0,63,-99.99,,,-99.99,,2013-02-16 00:21:00,
2013-02-15 19:32:00,24.0,14.0,30.21,SSE,151,0.0,-999.0,64,-99.99,,,-99.99,,2013-02-16 00:32:00,
2013-02-15 19:41:00,24.0,14.0,30.21,SSE,151,0.0,-999.0,64,-99.99,,,-99.99,,2013-02-16 00:41:00,
2013-02-15 19:52:00,23.0,13.0,30.21,SSE,151,0.0,-999.0,65,-99.99,,,-99.99,,2013-02-16 00:52:00,
2013-02-15 20:02:00,22.0,12.0,30.21,SSE,151,0.0,-999.0,66,-99.99,,,-99.99,,2013-02-16 01:02:00,
2013-02-15 20:11:00,22.0,12.0,30.21,SSE,151,0.0,-999.0,66,-99.99,,,-99.99,,2013-02-16 01:11:00,
2013-02-15 20:21:00,21.0,12.0,30.22,SSE,151,0.0,-999.0,68,-99.99,,,-99.99,,2013-02-16 01:21:00,
2013-02-15 20:31:00,21.0,12.0,30.22,SSE,151,0.0,-999.0,69,-99.99,,,-99.99,,2013-02-16 01:31:00,
2013-02-15 20:41:00,21.0,12.0,30.22,SSE,151,0.0,-999.0,69,-99.99,,,-99.99,,2013-02-16 01:41:00,
2013-02-15 20:52:00,22.0,13.0,30.22,SSE,151,0.0,-999.0,69,-99.99,,,-99.99,,2013-02-16 01:52:00,
2013-02-15 21:01:00,23.0,14.0,30.22,SSE,151,0.0,-999.0,69,-99.99,,,-99.99,,2013-02-16 02:01:00,
2013-02-15 21:11:00,23.0,14.0,30.22,SSE,151,0.0,-999.0,69,-99.99,,,-99.99,,2013-02-16 02:11:00,
2013-02-15 21:21:00,24.0,15.0,30.21,SSE,151,0.0,-999.0,68,-99.99,,,-99.99,,2013-02-16 02:21:00,
2013-02-15 21:31:00,24.0,15.0,30.21,SSE,151,0.0,-999.0,67,-99.99,,,-99.99,,2013-02-16 02:31:00,
2013-02-15 21:42:00,24.0,15.0,30.21,SSE,151,0.0,-999.0,67,-99.99,,,-99.99,,2013-02-16 02:42:00,
2013-02-15 21:52:00,24.0,15.0,30.21,ENE,59,0.0,-999.0,67,-99.99,,,-99.99,,2013-02-16 02:52:00,
2013-02-15 22:01:00,24.0,14.0,30.21,ENE,59,0.0,-999.0,66,-99.99,,,-99.99,,2013-02-16 03:01:00,
2013-02-15 22:11:00,24.0,14.0,30.21,ENE,59,0.0,-999.0,66,-99.99,,,-99.99,,2013-02-16 03:11:00,
2013-02-15 22:21:00,24.0,15.0,30.21,ENE,59,0.0,-999.0,67,-99.99,,,-99.99,,2013-02-16 03:21:00,
2013-02-15 22:32:00,24.0,15.0,30.21,ENE,59,0.0,-999.0,67,-99.99,,,-99.99,,2013-02-16 03:32:00,
2013-02-15 22:41:00,24.0,15.0,30.21,ENE,59,0.0,-999.0,67,-99.99,,,-99.99,,2013-02-16 03:41:00,
2013-02-15 22:52:00,24.0,15.0,30.20,ENE,59,0.0,-999.0,67,-99.99,,,-99.99,,2013-02-16 03:52:00,
2013-02-15 23:01:00,24.0,15.0,30.20,ENE,59,0.0,-999.0,67,-99.99,,,-99.99,,2013-02-16 04:01:00,
2013-02-15 23:11:00,24.0,14.0,30.20,ENE,59,0.0,-999.0,66,-99.99,,,-99.99,,2013-02-16 04:11:00,
2013-02-15 23:21:00,24.0,14.0,30.20,ENE,59,0.0,-999.0,66,-99.99,,,-99.99,,2013-02-16 04:21:00,
2013-02-15 23:32:00,24.0,14.0,30.20,ENE,59,0.0,-999.0,66,-99.99,,,-99.99,,2013-02-16 04:32:00,
2013-02-15 23:41:00,24.0,14.0,30.20,ENE,59,0.0,-999.0,66,-99.99,,,-99.99,,2013-02-16 04:41:00,
2013-02-15 23:52:00,25.0,16.0,30.19,ENE,59,0.0,-999.0,67,-99.99,,,-99.99,,2013-02-16 04:52:00,